createdAt,value
2019-04-03T00:01:47.602Z,55.27
2019-04-03T00:04:21.127Z,55.21
2019-04-03T00:06:51.839Z,55.05
2019-04-03T00:09:22.775Z,54.90
2019-04-03T00:11:53.076Z,55.02
2019-04-03T00:14:24.439Z,55.01
2019-04-03T00:16:58.461Z,54.98
2019-04-03T00:19:31.195Z,54.91
2019-04-03T00:22:05.370Z,54.80
2019-04-03T00:24:35.490Z,54.74
2019-04-03T00:27:05.408Z,54.66
2019-04-03T00:29:35.554Z,54.64
2019-04-03T00:32:05.867Z,54.64
2019-04-03T00:34:35.728Z,54.62
2019-04-03T00:37:05.738Z,54.65
2019-04-03T00:39:36.384Z,54.88
2019-04-03T00:42:09.745Z,55.05
2019-04-03T00:44:39.803Z,55.18
2019-04-03T00:47:09.855Z,55.31
2019-04-03T00:50:00.549Z,55.22
2019-04-03T00:52:31.368Z,55.25
2019-04-03T00:55:01.501Z,55.46
2019-04-03T00:57:31.505Z,55.58
2019-04-03T01:00:01.048Z,55.76
2019-04-03T01:02:30.963Z,55.91
2019-04-03T01:05:01.168Z,56.05
2019-04-03T01:07:31.179Z,56.39
2019-04-03T01:10:01.026Z,56.64
2019-04-03T01:12:32.037Z,56.89
2019-04-03T01:15:02.347Z,57.06
2019-04-03T01:17:34.892Z,57.32
2019-04-03T01:20:07.961Z,57.60
2019-04-03T01:22:39.057Z,57.47
2019-04-03T01:25:09.533Z,57.59
2019-04-03T01:27:41.610Z,57.67
2019-04-03T01:30:13.879Z,57.87
2019-04-03T01:32:46.126Z,58.06
2019-04-03T01:35:17.409Z,58.23
2019-04-03T01:37:49.463Z,58.49
2019-04-03T01:40:20.919Z,58.61
2019-04-03T01:42:52.778Z,58.54
2019-04-03T01:45:25.263Z,58.42
2019-04-03T01:47:58.242Z,58.21
2019-04-03T01:50:28.656Z,58.19
2019-04-03T01:53:01.789Z,58.17
2019-04-03T01:55:31.030Z,58.28
2019-04-03T01:58:06.098Z,58.32
2019-04-03T02:00:37.643Z,58.36
2019-04-03T02:03:10.862Z,58.74
2019-04-03T02:05:43.825Z,59.25
2019-04-03T02:08:15.539Z,59.65
2019-04-03T02:10:48.946Z,59.84
2019-04-03T02:13:22.566Z,59.95
2019-04-03T02:15:53.680Z,60.18
2019-04-03T02:18:25.327Z,60.20
2019-04-03T02:20:57.749Z,60.03
2019-04-03T02:23:27.361Z,60.13
2019-04-03T02:26:02.466Z,60.10
2019-04-03T02:28:34.140Z,60.16
2019-04-03T02:31:03.814Z,60.24
2019-04-03T02:33:37.209Z,60.14
2019-04-03T02:36:11.181Z,60.15
2019-04-03T02:38:38.854Z,59.93
2019-04-03T02:41:09.037Z,59.88
2019-04-03T02:43:38.904Z,59.75
2019-04-03T02:46:09.261Z,59.69
2019-04-03T02:48:40.302Z,59.60
2019-04-03T02:51:10.307Z,59.54
2019-04-03T02:53:41.109Z,59.55
2019-04-03T02:56:14.799Z,59.54
2019-04-03T02:58:45.153Z,59.46
2019-04-03T03:01:18.174Z,59.50
2019-04-03T03:03:49.905Z,59.41
2019-04-03T03:06:23.172Z,59.34
2019-04-03T03:08:53.287Z,59.21
2019-04-03T03:11:24.810Z,59.13
2019-04-03T03:13:55.687Z,59.09
2019-04-03T03:16:27.622Z,58.86
2019-04-03T03:19:02.949Z,58.91
2019-04-03T03:21:34.245Z,58.76
2019-04-03T03:24:07.764Z,58.60
2019-04-03T03:26:38.509Z,58.42
2019-04-03T03:29:17.659Z,58.27
2019-04-03T03:32:01.610Z,58.45
2019-04-03T03:34:13.497Z,58.69
2019-04-03T03:36:44.459Z,58.65
2019-04-03T03:39:15.065Z,58.53
2019-04-03T03:41:45.665Z,58.33
2019-04-03T03:44:18.798Z,58.04
2019-04-03T03:46:49.041Z,57.66
2019-04-03T03:49:19.310Z,57.47
2019-04-03T03:51:50.270Z,57.50
2019-04-03T03:54:21.724Z,57.46
2019-04-03T03:56:52.983Z,57.43
2019-04-03T03:59:26.548Z,57.34
2019-04-03T04:01:57.646Z,57.42
2019-04-03T04:04:27.526Z,57.40
2019-04-03T04:07:03.432Z,57.32
2019-04-03T04:09:36.669Z,57.30
2019-04-03T04:12:07.670Z,57.27
2019-04-03T04:14:48.781Z,57.25
2019-04-03T04:17:19.068Z,57.37
2019-04-03T04:19:49.349Z,57.36
2019-04-03T04:22:26.809Z,57.53
2019-04-03T04:24:58.593Z,57.69
2019-04-03T04:27:28.099Z,57.68
2019-04-03T04:29:58.581Z,57.67
2019-04-03T04:32:30.064Z,57.49
2019-04-03T04:35:03.641Z,57.64
2019-04-03T04:37:33.861Z,57.58
2019-04-03T04:40:04.151Z,57.60
2019-04-03T04:42:34.813Z,57.69
2019-04-03T04:45:11.257Z,57.75
2019-04-03T04:47:40.865Z,57.78
2019-04-03T04:50:11.241Z,57.89
2019-04-03T04:52:41.550Z,57.99
2019-04-03T04:55:12.163Z,58.27
2019-04-03T04:57:42.222Z,58.30
2019-04-03T05:00:15.109Z,58.79
2019-04-03T05:02:44.505Z,58.73
2019-04-03T05:05:14.286Z,58.52
2019-04-03T05:07:44.496Z,58.31
2019-04-03T05:10:17.398Z,58.15
2019-04-03T05:12:46.533Z,58.55
2019-04-03T05:15:21.715Z,59.52
2019-04-03T05:17:57.090Z,59.70
2019-04-03T05:20:26.233Z,59.87
2019-04-03T05:22:57.112Z,60.08
2019-04-03T05:25:29.287Z,59.02
2019-04-03T05:28:02.779Z,59.01
2019-04-03T05:30:37.738Z,59.14
2019-04-03T05:33:10.720Z,59.24
2019-04-03T05:35:40.514Z,59.87
2019-04-03T05:38:10.351Z,59.83
2019-04-03T05:40:40.665Z,59.53
2019-04-03T05:43:10.624Z,59.47
2019-04-03T05:45:42.124Z,59.26
2019-04-03T05:48:13.582Z,59.52
2019-04-03T05:50:44.583Z,59.38
2019-04-03T05:53:15.982Z,59.27
2019-04-03T05:55:46.107Z,59.21
2019-04-03T05:58:19.477Z,59.78
2019-04-03T06:01:02.873Z,59.58
2019-04-03T06:03:38.837Z,58.79
2019-04-03T06:05:58.632Z,58.37
2019-04-03T06:08:29.333Z,58.10
2019-04-03T06:10:59.415Z,57.75
2019-04-03T06:13:32.741Z,57.27
2019-04-03T06:16:03.277Z,56.95
2019-04-03T06:18:36.480Z,56.96
2019-04-03T06:21:07.383Z,56.47
2019-04-03T06:23:38.901Z,56.50
2019-04-03T06:26:08.856Z,56.48
2019-04-03T06:28:39.190Z,56.16
2019-04-03T06:31:09.422Z,55.85
2019-04-03T06:33:40.549Z,55.39
2019-04-03T06:36:11.921Z,54.96
2019-04-03T06:38:41.716Z,54.67
2019-04-03T06:41:13.997Z,54.18
2019-04-03T06:43:43.813Z,53.83
2019-04-03T06:46:14.011Z,53.92
2019-04-03T06:48:44.131Z,54.17
2019-04-03T06:51:16.510Z,54.01
2019-04-03T06:53:46.430Z,53.82
2019-04-03T06:56:16.556Z,53.87
2019-04-03T06:58:46.541Z,54.15
2019-04-03T07:01:18.102Z,54.22
2019-04-03T07:03:48.272Z,54.20
2019-04-03T07:06:22.513Z,54.03
2019-04-03T07:08:52.720Z,54.07
2019-04-03T07:11:24.497Z,54.26
2019-04-03T07:13:55.823Z,54.51
2019-04-03T07:16:29.194Z,54.95
2019-04-03T07:19:02.463Z,55.23
2019-04-03T07:21:33.448Z,55.63
2019-04-03T07:24:05.427Z,55.79
2019-04-03T07:26:36.292Z,55.91
2019-04-03T07:29:06.320Z,56.46
2019-04-03T07:31:36.321Z,56.70
2019-04-03T07:34:06.857Z,57.03
2019-04-03T07:36:41.299Z,57.35
2019-04-03T07:39:11.936Z,57.55
2019-04-03T07:41:42.154Z,57.74
2019-04-03T07:44:12.334Z,58.11
2019-04-03T07:46:43.150Z,58.40
2019-04-03T07:49:14.186Z,58.65
2019-04-03T07:51:44.874Z,58.34
2019-04-03T07:54:18.256Z,57.93
2019-04-03T07:56:48.379Z,58.46
2019-04-03T07:59:19.929Z,58.44
2019-04-03T08:01:51.748Z,58.29
2019-04-03T08:04:24.790Z,58.32
2019-04-03T08:06:55.706Z,58.77
2019-04-03T08:09:26.290Z,58.56
2019-04-03T08:11:56.631Z,58.59
2019-04-03T08:14:26.830Z,58.55
2019-04-03T08:16:58.567Z,58.72
2019-04-03T08:19:30.373Z,57.62
2019-04-03T08:22:01.889Z,57.29
2019-04-03T08:24:33.433Z,56.22
2019-04-03T08:27:03.726Z,55.59
2019-04-03T08:29:38.218Z,54.94
2019-04-03T08:32:09.029Z,54.24
2019-04-03T08:34:40.293Z,53.22
2019-04-03T08:37:10.976Z,52.56
2019-04-03T08:39:41.419Z,52.48
2019-04-03T08:42:15.067Z,52.33
2019-04-03T08:44:44.972Z,52.31
2019-04-03T08:47:15.375Z,52.15
2019-04-03T08:49:46.927Z,52.40
2019-04-03T08:52:17.183Z,52.57
2019-04-03T08:54:47.284Z,52.58
2019-04-03T08:57:20.008Z,52.35
2019-04-03T08:59:52.346Z,52.13
2019-04-03T09:02:22.990Z,52.04
2019-04-03T09:04:55.636Z,52.12
2019-04-03T09:07:27.291Z,52.60
2019-04-03T09:10:00.422Z,52.56
2019-04-03T09:12:29.150Z,52.24
2019-04-03T09:14:59.401Z,51.76
2019-04-03T09:17:29.458Z,50.59
2019-04-03T09:19:59.729Z,51.86
2019-04-03T09:22:30.857Z,52.06
2019-04-03T09:25:04.168Z,52.10
2019-04-03T09:27:35.893Z,51.08
2019-04-03T09:30:09.859Z,50.52
2019-04-03T09:32:39.941Z,51.75
2019-04-03T09:35:11.494Z,52.54
2019-04-03T09:37:45.313Z,53.29
2019-04-03T09:40:17.309Z,53.46
2019-04-03T09:42:47.483Z,51.69
2019-04-03T09:45:20.878Z,51.33
2019-04-03T09:47:51.766Z,50.32
2019-04-03T09:50:22.983Z,49.01
2019-04-03T09:52:54.649Z,47.86
2019-04-03T09:55:31.387Z,47.89
2019-04-03T09:58:02.428Z,48.54
2019-04-03T10:00:35.235Z,47.53
2019-04-03T10:03:06.531Z,45.43
2019-04-03T10:05:36.321Z,45.04
2019-04-03T10:08:08.482Z,44.12
2019-04-03T10:10:39.349Z,43.71
2019-04-03T10:13:09.183Z,43.83
2019-04-03T10:15:40.358Z,43.71
2019-04-03T10:18:12.243Z,43.95
2019-04-03T10:20:42.281Z,44.24
2019-04-03T10:23:15.596Z,44.89
2019-04-03T10:25:45.762Z,44.51
2019-04-03T10:28:15.693Z,45.31
2019-04-03T10:30:47.492Z,45.54
2019-04-03T10:33:18.386Z,45.35
2019-04-03T10:35:48.518Z,44.86
2019-04-03T10:38:19.019Z,44.79
2019-04-03T10:40:48.955Z,45.70
2019-04-03T10:43:19.132Z,46.51
2019-04-03T10:45:48.984Z,46.72
2019-04-03T10:48:23.500Z,47.31
2019-04-03T10:50:53.993Z,46.99
2019-04-03T10:53:23.985Z,46.56
2019-04-03T10:55:55.383Z,46.36
2019-04-03T10:58:28.586Z,46.74
2019-04-03T11:01:02.803Z,47.39
2019-04-03T11:03:33.005Z,48.00
2019-04-03T11:06:06.257Z,48.13
2019-04-03T11:08:36.229Z,48.25
2019-04-03T11:11:06.289Z,48.99
2019-04-03T11:13:36.115Z,49.21
2019-04-03T11:16:06.528Z,49.49
2019-04-03T11:18:38.017Z,49.30
2019-04-03T11:21:12.176Z,48.41
2019-04-03T11:23:44.777Z,47.57
2019-04-03T11:26:13.861Z,46.79
2019-04-03T11:28:43.818Z,46.61
2019-04-03T11:31:24.982Z,45.94
2019-04-03T11:33:46.505Z,45.45
2019-04-03T11:36:16.749Z,44.84
2019-04-03T11:38:46.638Z,44.71
2019-04-03T11:41:19.603Z,44.23
2019-04-03T11:43:48.818Z,44.03
2019-04-03T11:46:19.009Z,43.49
2019-04-03T11:48:49.345Z,43.42
2019-04-03T11:51:22.143Z,42.94
2019-04-03T11:53:54.686Z,43.31
2019-04-03T11:56:24.517Z,43.67
2019-04-03T11:58:55.502Z,44.07
2019-04-03T12:01:26.954Z,43.76
2019-04-03T12:03:57.215Z,44.42
2019-04-03T12:06:27.405Z,44.52
2019-04-03T12:09:00.903Z,44.27
2019-04-03T12:11:30.640Z,43.77
2019-04-03T12:14:01.760Z,43.63
2019-04-03T12:16:31.798Z,43.52
2019-04-03T12:19:02.912Z,43.06
2019-04-03T12:21:34.769Z,42.38
2019-04-03T12:24:04.982Z,41.36
2019-04-03T12:26:35.462Z,41.34
2019-04-03T12:29:11.255Z,40.72
2019-04-03T12:31:44.240Z,40.77
2019-04-03T12:34:14.407Z,40.63
2019-04-03T12:36:46.197Z,40.92
2019-04-03T12:39:28.850Z,40.81
2019-04-03T12:41:59.410Z,40.98
2019-04-03T12:44:32.497Z,40.75
2019-04-03T12:47:06.914Z,40.18
2019-04-03T12:49:39.145Z,39.47
2019-04-03T12:52:09.278Z,39.00
2019-04-03T12:54:39.281Z,38.45
2019-04-03T12:57:10.502Z,38.38
2019-04-03T12:59:40.828Z,38.47
2019-04-03T13:02:13.122Z,38.47
2019-04-03T13:04:43.657Z,38.82
2019-04-03T13:07:15.144Z,38.56
2019-04-03T13:09:48.717Z,38.69
2019-04-03T13:12:23.090Z,38.88
2019-04-03T13:14:52.193Z,39.13
2019-04-03T13:17:22.689Z,39.53
2019-04-03T13:19:53.072Z,39.79
2019-04-03T13:22:24.377Z,40.48
2019-04-03T13:24:54.738Z,40.40
2019-04-03T13:27:24.945Z,40.87
2019-04-03T13:29:55.948Z,41.24
2019-04-03T13:32:26.138Z,41.37
2019-04-03T13:34:56.185Z,41.12
2019-04-03T13:37:25.977Z,40.48
2019-04-03T13:39:56.293Z,40.23
2019-04-03T13:42:26.449Z,40.18
2019-04-03T13:44:59.304Z,40.50
2019-04-03T13:47:28.334Z,40.39
2019-04-03T13:50:02.880Z,40.41
2019-04-03T13:52:41.739Z,40.26
2019-04-03T13:55:07.767Z,40.41
2019-04-03T13:57:38.422Z,40.08
2019-04-03T14:00:20.636Z,39.76
2019-04-03T14:02:44.966Z,39.53
2019-04-03T14:05:17.922Z,39.30
2019-04-03T14:07:48.235Z,39.41
2019-04-03T14:10:19.228Z,39.89
2019-04-03T14:12:49.163Z,40.23
2019-04-03T14:15:21.550Z,40.49
2019-04-03T14:17:58.983Z,40.84
2019-04-03T14:20:32.033Z,41.03
2019-04-03T14:23:13.277Z,41.25
2019-04-03T14:25:43.622Z,42.21
2019-04-03T14:28:21.965Z,42.41
2019-04-03T14:30:54.130Z,42.44
2019-04-03T14:33:26.061Z,42.00
2019-04-03T14:35:57.889Z,42.90
2019-04-03T14:38:29.274Z,42.67
2019-04-03T14:40:59.557Z,42.64
2019-04-03T14:43:34.606Z,42.79
2019-04-03T14:46:09.722Z,42.88
2019-04-03T14:48:39.757Z,43.06
2019-04-03T14:51:11.369Z,43.50
2019-04-03T14:53:41.640Z,43.40
2019-04-03T14:56:11.621Z,43.70
2019-04-03T14:58:41.941Z,43.94
2019-04-03T15:01:11.905Z,43.96
2019-04-03T15:03:41.908Z,43.70
2019-04-03T15:06:14.652Z,44.15
2019-04-03T15:08:44.141Z,44.47
2019-04-03T15:11:18.053Z,44.82
2019-04-03T15:13:49.819Z,45.04
2019-04-03T15:16:21.013Z,44.86
2019-04-03T15:18:52.524Z,45.30
2019-04-03T15:21:23.750Z,45.17
2019-04-03T15:23:54.252Z,44.92
2019-04-03T15:26:24.092Z,44.19
2019-04-03T15:28:54.707Z,43.45
2019-04-03T15:31:28.867Z,42.78
2019-04-03T15:33:59.475Z,42.13
2019-04-03T15:36:29.322Z,41.66
2019-04-03T15:39:00.054Z,41.26
2019-04-03T15:41:33.110Z,40.87
2019-04-03T15:44:01.944Z,40.85
2019-04-03T15:46:34.147Z,40.83
2019-04-03T15:49:04.448Z,40.94
2019-04-03T15:51:38.061Z,40.81
2019-04-03T15:54:07.236Z,40.99
2019-04-03T15:56:38.235Z,40.65
2019-04-03T15:59:10.554Z,40.87
2019-04-03T16:01:40.586Z,41.00
2019-04-03T16:04:10.559Z,41.11
2019-04-03T16:06:40.664Z,40.66
2019-04-03T16:09:11.379Z,40.79
2019-04-03T16:11:41.615Z,41.16
2019-04-03T16:14:12.862Z,41.68
2019-04-03T16:16:43.009Z,42.15
2019-04-03T16:19:13.127Z,42.75
2019-04-03T16:21:43.066Z,43.24
2019-04-03T16:24:14.678Z,43.71
2019-04-03T16:26:44.898Z,44.09
2019-04-03T16:29:15.316Z,44.57
2019-04-03T16:31:46.082Z,45.08
2019-04-03T16:34:19.606Z,45.64
2019-04-03T16:36:50.727Z,45.85
2019-04-03T16:39:21.479Z,46.26
2019-04-03T16:41:52.937Z,46.77
2019-04-03T16:44:25.648Z,47.36
2019-04-03T16:46:56.089Z,47.90
2019-04-03T16:49:28.436Z,48.71
2019-04-03T16:51:58.003Z,49.26
2019-04-03T16:54:29.593Z,49.68
2019-04-03T16:57:03.705Z,50.18
2019-04-03T16:59:37.354Z,50.54
2019-04-03T17:02:08.119Z,50.98
2019-04-03T17:04:38.745Z,51.47
2019-04-03T17:07:09.167Z,51.90
2019-04-03T17:09:39.671Z,52.23
2019-04-03T17:12:10.512Z,52.47
2019-04-03T17:14:42.661Z,52.87
2019-04-03T17:17:16.675Z,53.29
2019-04-03T17:19:49.931Z,53.80
2019-04-03T17:22:18.760Z,54.09
2019-04-03T17:24:53.745Z,54.29
2019-04-03T17:27:21.134Z,54.78
2019-04-03T17:29:53.852Z,54.80
2019-04-03T17:32:24.411Z,54.88
2019-04-03T17:34:57.477Z,55.20
2019-04-03T17:37:30.366Z,55.91
2019-04-03T17:39:59.105Z,56.46
2019-04-03T17:42:32.154Z,56.90
2019-04-03T17:45:08.891Z,57.00
2019-04-03T17:47:38.716Z,57.13
2019-04-03T17:50:09.738Z,57.80
2019-04-03T17:52:39.660Z,58.00
2019-04-03T17:55:10.928Z,58.37
2019-04-03T17:57:44.600Z,58.39
2019-04-03T18:00:14.988Z,58.46
2019-04-03T18:02:45.252Z,58.72
2019-04-03T18:05:15.740Z,59.02
2019-04-03T18:07:45.859Z,59.24
2019-04-03T18:10:19.130Z,59.80
2019-04-03T18:12:52.472Z,60.08
2019-04-03T18:15:24.202Z,60.28
2019-04-03T18:17:57.390Z,60.57
2019-04-03T18:20:28.589Z,61.09
2019-04-03T18:22:58.456Z,61.62
2019-04-03T18:25:29.359Z,61.80
2019-04-03T18:28:00.953Z,61.68
2019-04-03T18:30:31.605Z,61.66
2019-04-03T18:33:05.562Z,61.90
2019-04-03T18:35:35.691Z,61.85
2019-04-03T18:38:08.138Z,62.04
2019-04-03T18:40:38.816Z,62.13
2019-04-03T18:43:08.805Z,62.12
2019-04-03T18:45:39.201Z,62.16
2019-04-03T18:48:09.567Z,62.48
2019-04-03T18:50:40.845Z,62.38
2019-04-03T18:53:10.908Z,62.28
2019-04-03T18:55:40.772Z,62.26
2019-04-03T18:58:13.703Z,62.03
2019-04-03T19:00:43.706Z,61.81
2019-04-03T19:03:13.767Z,62.02
2019-04-03T19:05:43.783Z,61.94
2019-04-03T19:08:13.901Z,62.03
2019-04-03T19:10:43.726Z,62.12
2019-04-03T19:13:18.220Z,61.88
2019-04-03T19:15:48.065Z,61.80
2019-04-03T19:18:20.002Z,61.96
2019-04-03T19:20:50.130Z,62.07
2019-04-03T19:23:20.410Z,61.86
2019-04-03T19:25:50.614Z,61.97
2019-04-03T19:28:20.749Z,62.03
2019-04-03T19:30:50.550Z,61.83
2019-04-03T19:33:20.820Z,61.63
2019-04-03T19:35:51.154Z,61.40
2019-04-03T19:38:22.885Z,61.25
2019-04-03T19:40:53.161Z,61.19
2019-04-03T19:43:23.738Z,61.16
2019-04-03T19:45:54.832Z,61.08
2019-04-03T19:48:25.681Z,60.93
2019-04-03T19:50:57.633Z,60.84
2019-04-03T19:53:27.778Z,60.95
2019-04-03T19:55:57.817Z,61.00
2019-04-03T19:58:29.570Z,61.11
2019-04-03T20:00:59.726Z,61.20
2019-04-03T20:03:29.640Z,61.39
2019-04-03T20:06:01.197Z,61.35
2019-04-03T20:08:32.067Z,61.27
2019-04-03T20:11:03.018Z,61.42
2019-04-03T20:13:39.551Z,61.99
2019-04-03T20:16:08.623Z,62.38
2019-04-03T20:18:40.664Z,62.61
2019-04-03T20:21:11.835Z,62.25
2019-04-03T20:23:42.545Z,61.79
2019-04-03T20:26:12.816Z,62.77
2019-04-03T20:28:43.390Z,63.38
2019-04-03T20:31:15.676Z,64.14
2019-04-03T20:33:46.143Z,65.11
2019-04-03T20:36:20.212Z,66.32
2019-04-03T20:38:50.028Z,66.75
2019-04-03T20:41:20.142Z,67.13
2019-04-03T20:43:50.154Z,67.54
2019-04-03T20:46:20.062Z,67.37
2019-04-03T20:48:49.908Z,67.63
2019-04-03T20:51:19.831Z,68.70
2019-04-03T20:53:50.760Z,68.77
2019-04-03T20:56:21.545Z,68.98
2019-04-03T20:58:56.105Z,68.76
2019-04-03T21:01:23.834Z,69.96
2019-04-03T21:03:53.660Z,70.41
2019-04-03T21:06:23.507Z,69.90
2019-04-03T21:08:53.738Z,70.02
2019-04-03T21:11:23.616Z,70.22
2019-04-03T21:13:53.670Z,69.80
2019-04-03T21:16:33.138Z,69.82
2019-04-03T21:18:55.593Z,70.56
2019-04-03T21:21:26.081Z,71.53
2019-04-03T21:23:56.252Z,71.50
2019-04-03T21:26:26.145Z,71.76
2019-04-03T21:28:56.287Z,72.17
2019-04-03T21:31:26.618Z,72.16
2019-04-03T21:33:56.874Z,72.75
2019-04-03T21:36:27.401Z,73.94
2019-04-03T21:38:57.590Z,73.70
2019-04-03T21:41:27.613Z,73.77
2019-04-03T21:43:59.572Z,73.76
2019-04-03T21:46:30.304Z,74.18
2019-04-03T21:49:00.511Z,74.22
2019-04-03T21:51:33.550Z,74.24
2019-04-03T21:54:03.784Z,74.81
2019-04-03T21:56:33.713Z,74.81
2019-04-03T21:59:04.245Z,75.03
2019-04-03T22:01:34.807Z,74.96
2019-04-03T22:04:06.762Z,74.63
2019-04-03T22:06:39.104Z,75.39
2019-04-03T22:09:12.769Z,75.22
2019-04-03T22:11:43.080Z,75.22
2019-04-03T22:14:13.767Z,75.30
2019-04-03T22:16:44.087Z,75.30
2019-04-03T22:19:14.069Z,74.54
2019-04-03T22:21:44.428Z,74.73
2019-04-03T22:24:14.763Z,75.31
2019-04-03T22:26:45.322Z,75.31
2019-04-03T22:29:23.605Z,74.67
2019-04-03T22:31:57.227Z,74.79
2019-04-03T22:34:29.925Z,75.10
2019-04-03T22:37:03.784Z,75.20
2019-04-03T22:39:34.952Z,75.72
2019-04-03T22:42:05.584Z,75.50
2019-04-03T22:44:36.097Z,75.78
2019-04-03T22:47:07.086Z,75.58
2019-04-03T22:49:38.573Z,75.48
2019-04-03T22:52:09.474Z,75.52
2019-04-03T22:54:43.574Z,74.98
2019-04-03T22:57:13.283Z,74.98
2019-04-03T22:59:43.110Z,75.40
2019-04-03T23:02:13.410Z,75.55
2019-04-03T23:04:46.307Z,75.55
2019-04-03T23:07:16.482Z,75.41
2019-04-03T23:09:46.410Z,75.41
2019-04-03T23:12:16.435Z,76.43
2019-04-03T23:14:46.825Z,76.43
2019-04-03T23:17:16.758Z,76.22
2019-04-03T23:19:46.664Z,76.17
2019-04-03T23:22:16.872Z,76.56
2019-04-03T23:24:46.951Z,76.56
2019-04-03T23:27:17.239Z,76.38
2019-04-03T23:29:47.627Z,76.26
2019-04-03T23:32:18.266Z,76.22
2019-04-03T23:34:49.576Z,76.63
2019-04-03T23:37:20.514Z,76.65
2019-04-03T23:39:50.681Z,76.70
2019-04-03T23:42:20.768Z,76.73
2019-04-03T23:44:51.849Z,76.80
2019-04-03T23:47:21.735Z,77.21
2019-04-03T23:49:53.227Z,77.45
2019-04-03T23:52:23.579Z,77.44
2019-04-03T23:54:53.628Z,77.21
2019-04-03T23:57:23.456Z,76.83
2019-04-03T23:59:53.812Z,76.70
